Time;durP1;ratioP1;P1;durP2;ratioP2;P2;SDS_P1;SDS_P2;PMS_P1;PMS_P2;Temp;Humidity;BMP_temperature;BMP_pressure;BME280_temperature;BME280_humidity;BME280_pressure;Samples;Min_cycle;Max_cycle;Signal;HPM_P1;HPM_P2
2022/06/24 00:00:14;;;;;;;6.03;3.35;;;;;;;14.56;100.00;94886.41;5040633;28;20036;-71
2022/06/24 00:02:46;;;;;;;9.73;4.50;;;;;;;14.44;100.00;94881.38;5041702;28;20075;-71
2022/06/24 00:05:13;;;;;;;5.53;3.45;;;;;;;14.48;100.00;94889.53;5061551;28;20048;-71
2022/06/24 00:07:52;;;;;;;10.43;4.18;;;;;;;14.41;100.00;94887.13;5060522;28;20041;-71
2022/06/24 00:10:21;;;;;;;8.65;3.15;;;;;;;14.39;100.00;94881.34;5033464;28;20807;-71
2022/06/24 00:12:51;;;;;;;10.27;3.85;;;;;;;14.41;100.00;94878.47;5027485;28;20041;-70
2022/06/24 00:15:30;;;;;;;5.63;3.42;;;;;;;14.28;100.00;94864.78;5029450;28;20499;-71
2022/06/24 00:17:57;;;;;;;6.97;3.80;;;;;;;14.42;100.00;94885.28;5018662;28;20060;-71
2022/06/24 00:20:24;;;;;;;8.43;3.70;;;;;;;14.46;100.00;94886.38;5019893;28;20045;-71
2022/06/24 00:22:52;;;;;;;4.95;3.90;;;;;;;14.47;100.00;94883.47;5022489;28;20048;-71
2022/06/24 00:25:25;;;;;;;6.03;3.30;;;;;;;14.47;100.00;94880.06;5026071;28;20039;-71
2022/06/24 00:28:09;;;;;;;5.07;3.67;;;;;;;14.41;100.00;94884.50;5025225;28;20047;-71
2022/06/24 00:30:41;;;;;;;8.70;3.78;;;;;;;14.31;100.00;94889.66;5028167;28;20041;-71
2022/06/24 00:33:34;;;;;;;8.95;3.25;;;;;;;14.33;100.00;94898.88;5024581;28;20042;-71
2022/06/24 00:36:02;;;;;;;8.13;3.33;;;;;;;14.28;100.00;94901.47;5033411;28;20542;-71
2022/06/24 00:38:31;;;;;;;8.98;3.75;;;;;;;14.25;100.00;94901.94;5028858;28;20045;-70
2022/06/24 00:41:10;;;;;;;6.50;3.20;;;;;;;14.26;100.00;94908.78;5020703;28;20049;-71
2022/06/24 00:43:43;;;;;;;6.10;3.67;;;;;;;14.16;100.00;94924.41;5024229;28;20040;-71
2022/06/24 00:46:24;;;;;;;4.55;3.40;;;;;;;14.05;100.00;94923.56;5022139;28;20060;-70
2022/06/24 00:48:53;;;;;;;6.03;3.80;;;;;;;13.93;100.00;94910.63;5031696;28;20041;-70
2022/06/24 00:51:22;;;;;;;5.65;3.00;;;;;;;13.88;100.00;94920.25;5021629;28;20038;-71
2022/06/24 00:53:55;;;;;;;5.63;3.53;;;;;;;13.81;100.00;94922.28;5037950;28;20076;-71
2022/06/24 00:56:27;;;;;;;5.18;3.42;;;;;;;13.76;100.00;94925.66;5027042;28;20040;-71
2022/06/24 00:58:58;;;;;;;4.10;3.55;;;;;;;13.72;100.00;94919.31;5023041;28;20046;-71
2022/06/24 01:01:32;;;;;;;6.80;3.55;;;;;;;13.55;100.00;94915.00;5026007;28;20044;-70
2022/06/24 01:04:01;;;;;;;6.95;3.75;;;;;;;13.53;100.00;94921.53;5005087;28;20195;-71
2022/06/24 01:06:30;;;;;;;7.32;4.43;;;;;;;13.46;100.00;94920.91;5041305;28;20053;-70
2022/06/24 01:08:57;;;;;;;5.63;4.30;;;;;;;13.42;100.00;94904.94;5024647;28;20102;-70
2022/06/24 01:11:26;;;;;;;8.38;4.15;;;;;;;13.46;100.00;94916.47;5045582;28;20748;-70
2022/06/24 01:13:53;;;;;;;7.88;3.58;;;;;;;13.40;100.00;94914.84;5060192;28;20048;-70
2022/06/24 01:16:22;;;;;;;8.52;4.18;;;;;;;13.34;100.00;94915.81;5057115;28;20033;-70
2022/06/24 01:18:54;;;;;;;7.28;3.90;;;;;;;13.14;100.00;94893.63;5055683;28;20052;-70
2022/06/24 01:21:41;;;;;;;9.57;4.57;;;;;;;13.19;100.00;94906.75;5060751;28;20044;-70
2022/06/24 01:24:09;;;;;;;7.20;4.32;;;;;;;13.16;100.00;94907.25;5056553;28;20040;-71
2022/06/24 01:26:37;;;;;;;6.75;4.07;;;;;;;13.15;100.00;94905.66;5040561;28;20052;-70
2022/06/24 01:29:09;;;;;;;9.18;4.15;;;;;;;13.13;100.00;94906.94;5056528;28;20044;-70
2022/06/24 01:31:38;;;;;;;4.65;3.80;;;;;;;13.12;100.00;94905.34;5059911;28;20695;-70
2022/06/24 01:34:05;;;;;;;5.75;3.83;;;;;;;13.11;100.00;94909.03;5056009;28;20689;-70
2022/06/24 01:36:32;;;;;;;6.70;4.13;;;;;;;13.11;100.00;94904.56;5056012;28;20043;-70
2022/06/24 01:38:59;;;;;;;7.93;3.70;;;;;;;13.20;100.00;94913.56;5055001;28;20103;-70
2022/06/24 01:41:26;;;;;;;31.88;5.93;;;;;;;13.28;100.00;94908.94;5062319;28;20052;-70
2022/06/24 01:43:54;;;;;;;15.07;5.32;;;;;;;13.32;100.00;94904.81;5040326;28;20052;-71
2022/06/24 01:46:21;;;;;;;10.52;4.18;;;;;;;13.34;100.00;94898.31;5044931;28;20661;-71
2022/06/24 01:48:48;;;;;;;12.15;4.53;;;;;;;13.28;100.00;94891.41;5055978;28;20106;-70
2022/06/24 01:51:16;;;;;;;10.20;4.18;;;;;;;13.27;100.00;94896.88;5056767;28;20037;-71
2022/06/24 01:53:42;;;;;;;6.05;4.30;;;;;;;13.20;100.00;94902.31;5057737;28;20047;-71
2022/06/24 01:56:09;;;;;;;7.68;4.13;;;;;;;13.20;100.00;94908.34;5043072;28;20044;-71
2022/06/24 01:58:36;;;;;;;9.85;5.10;;;;;;;13.09;100.00;94911.06;5062819;28;20160;-71
2022/06/24 02:01:03;;;;;;;9.43;4.35;;;;;;;12.96;100.00;94918.28;5063136;28;20034;-71
2022/06/24 02:03:34;;;;;;;13.57;4.25;;;;;;;12.95;100.00;94923.75;5059458;28;20827;-71
2022/06/24 02:06:04;;;;;;;7.10;4.40;;;;;;;12.87;100.00;94913.69;5063519;28;20036;-71
2022/06/24 02:08:31;;;;;;;7.07;4.18;;;;;;;12.69;100.00;94892.03;5065515;28;20127;-71
2022/06/24 02:13:47;;;;;;;4.50;3.75;;;;;;;12.80;100.00;94903.41;5069915;28;20032;-71
2022/06/24 02:16:18;;;;;;;7.95;4.15;;;;;;;12.78;100.00;94895.84;5064635;28;20032;-71
2022/06/24 02:18:46;;;;;;;12.35;5.32;;;;;;;12.77;100.00;94891.63;5028717;28;20179;-70
2022/06/24 02:21:14;;;;;;;10.32;4.78;;;;;;;12.67;100.00;94883.66;5060966;28;20044;-70
2022/06/24 02:23:42;;;;;;;6.13;4.20;;;;;;;12.61;100.00;94874.19;5045835;28;20766;-71
2022/06/24 02:26:09;;;;;;;8.13;4.85;;;;;;;12.59;100.00;94871.03;5044717;28;20410;-70
2022/06/24 02:28:37;;;;;;;10.45;5.35;;;;;;;12.59;100.00;94882.25;5046608;28;20044;-70
2022/06/24 02:31:04;;;;;;;8.00;4.82;;;;;;;12.61;100.00;94884.63;5042162;28;20410;-70
2022/06/24 02:33:32;;;;;;;9.65;4.65;;;;;;;12.64;100.00;94889.38;5066428;28;20055;-70
2022/06/24 02:35:59;;;;;;;7.80;4.82;;;;;;;12.64;100.00;94889.38;5044233;28;20048;-71
2022/06/24 02:38:26;;;;;;;7.22;4.65;;;;;;;12.71;100.00;94900.44;5040902;28;20550;-71
2022/06/24 02:40:53;;;;;;;12.18;4.15;;;;;;;12.71;100.00;94905.69;5063771;28;20037;-71
2022/06/24 02:43:46;;;;;;;9.57;5.25;;;;;;;12.69;100.00;94899.88;5043830;28;20275;-71
2022/06/24 02:46:16;;;;;;;7.15;4.80;;;;;;;12.71;100.00;94905.69;5038714;28;20036;-71
2022/06/24 02:48:43;;;;;;;12.52;5.03;;;;;;;12.76;100.00;94897.88;5026329;28;20053;-71
2022/06/24 02:51:13;;;;;;;8.32;4.57;;;;;;;12.82;100.00;94899.53;5064656;28;20051;-71
2022/06/24 02:53:41;;;;;;;8.93;5.15;;;;;;;12.89;100.00;94901.16;5043884;28;20033;-70
2022/06/24 02:56:11;;;;;;;9.32;4.25;;;;;;;12.94;100.00;94893.38;5043695;28;20063;-71
2022/06/24 02:58:39;;;;;;;7.88;4.20;;;;;;;12.87;100.00;94892.78;5060535;28;20044;-71
2022/06/24 03:01:06;;;;;;;13.82;5.88;;;;;;;12.87;100.00;94892.78;5046713;28;20053;-71
2022/06/24 03:03:34;;;;;;;6.55;4.85;;;;;;;12.88;100.00;94894.38;5057386;28;20069;-71
2022/06/24 03:06:01;;;;;;;6.53;4.25;;;;;;;12.91;100.00;94888.63;5043934;28;20033;-71
2022/06/24 03:08:29;;;;;;;12.32;4.28;;;;;;;12.96;100.00;94891.31;5026779;28;20055;-71
2022/06/24 03:10:56;;;;;;;13.55;5.25;;;;;;;12.99;100.00;94888.22;5063838;28;20083;-71
2022/06/24 03:13:23;;;;;;;7.13;4.78;;;;;;;12.96;100.00;94876.44;5063189;28;20044;-71
2022/06/24 03:15:50;;;;;;;6.50;4.20;;;;;;;13.05;100.00;94891.69;5042050;28;20102;-71
2022/06/24 03:18:18;;;;;;;6.32;3.92;;;;;;;13.08;100.00;94893.81;5060327;28;20036;-71
2022/06/24 03:20:46;;;;;;;7.40;4.50;;;;;;;13.14;100.00;94898.06;5061182;28;20048;-71
2022/06/24 03:23:16;;;;;;;10.80;4.68;;;;;;;13.21;100.00;94901.28;5041074;28;20161;-71
2022/06/24 03:25:44;;;;;;;9.65;3.67;;;;;;;13.17;100.00;94882.66;5063943;28;20123;-76
2022/06/24 03:28:11;;;;;;;9.68;4.57;;;;;;;13.37;100.00;94897.81;5067787;28;20046;-71
2022/06/24 03:30:38;;;;;;;10.05;4.38;;;;;;;13.48;100.00;94898.69;5065148;28;20041;-74
2022/06/24 03:33:06;;;;;;;10.75;4.22;;;;;;;13.58;100.00;94906.66;5045801;28;20048;-72
2022/06/24 03:35:33;;;;;;;5.97;3.92;;;;;;;13.69;100.00;94904.13;5062176;28;20044;-73
2022/06/24 03:38:00;;;;;;;7.47;3.97;;;;;;;13.82;100.00;94908.97;5047084;28;20055;-71
2022/06/24 03:40:27;;;;;;;7.28;4.28;;;;;;;13.92;100.00;94909.06;5063069;28;20040;-69
2022/06/24 03:42:55;;;;;;;5.10;4.20;;;;;;;14.04;100.00;94915.94;5064190;28;20036;-71
2022/06/24 03:45:22;;;;;;;11.80;4.97;;;;;;;14.15;100.00;94922.81;5064652;28;20043;-71
2022/06/24 03:47:49;;;;;;;9.25;4.78;;;;;;;14.25;100.00;94915.06;5052140;28;20068;-71
2022/06/24 03:50:16;;;;;;;10.88;4.57;;;;;;;14.33;100.00;94909.34;5058637;28;20045;-70
2022/06/24 03:52:44;;;;;;;14.43;4.10;;;;;;;14.50;100.00;94900.53;5053239;28;20041;-70
2022/06/24 03:55:11;;;;;;;10.32;5.10;;;;;;;14.69;100.00;94906.97;5050692;28;20045;-71
2022/06/24 03:57:39;;;;;;;11.68;4.13;;;;;;;14.87;100.00;94907.56;5068752;28;20051;-67
2022/06/24 04:00:07;;;;;;;6.97;5.07;;;;;;;14.96;100.00;94900.78;5068938;28;20430;-66
2022/06/24 04:02:37;;;;;;;13.10;3.95;;;;;;;15.14;100.00;94901.38;5064755;28;20051;-70
2022/06/24 04:05:11;;;;;;;6.90;4.30;;;;;;;15.23;100.00;94895.41;5062654;28;20047;-71
2022/06/24 04:07:39;;;;;;;7.60;3.63;;;;;;;15.36;100.00;94904.59;5058607;28;20047;-66
2022/06/24 04:10:06;;;;;;;11.35;3.92;;;;;;;15.44;100.00;94906.72;5058470;28;20032;-67
2022/06/24 04:12:34;;;;;;;5.45;3.58;;;;;;;15.58;100.00;94906.22;5055794;28;20630;-68
2022/06/24 04:15:14;;;;;;;12.82;4.57;;;;;;;15.66;100.00;94908.31;5059120;28;20044;-67
2022/06/24 04:17:46;;;;;;;8.48;4.07;;;;;;;15.78;100.00;94914.16;5058952;28;20037;-68
2022/06/24 04:20:14;;;;;;;5.03;3.53;;;;;;;15.93;100.00;94907.34;5061809;28;20182;-73
2022/06/24 04:26:12;;;;;;;7.85;3.10;;;;;;;16.16;100.00;94930.44;5075471;27;20552;-72
2022/06/24 04:28:39;;;;;;;7.57;3.35;;;;;;;16.34;100.00;94938.88;5061487;28;20047;-72
2022/06/24 04:31:06;;;;;;;6.93;3.05;;;;;;;16.57;100.00;94932.28;5055277;28;20797;-72
2022/06/24 04:33:33;;;;;;;7.13;3.28;;;;;;;16.65;100.00;94912.53;5060136;28;20032;-72
2022/06/24 04:36:01;;;;;;;6.20;3.15;;;;;;;16.87;100.00;94934.06;5057328;28;20103;-72
2022/06/24 04:38:28;;;;;;;5.57;3.45;;;;;;;17.09;100.00;94940.84;5076347;28;20763;-72
2022/06/24 04:40:55;;;;;;;6.72;3.60;;;;;;;17.27;100.00;94940.25;5049572;28;20044;-72
2022/06/24 04:43:21;;;;;;;10.07;5.60;;;;;;;17.41;100.00;94944.91;5081777;28;20041;-72
2022/06/24 04:45:48;;;;;;;12.25;4.22;;;;;;;17.37;100.00;94940.19;5061713;28;20827;-73
2022/06/24 04:48:15;;;;;;;7.00;4.00;;;;;;;17.54;100.00;94954.88;5088350;28;20047;-72
2022/06/24 04:50:42;;;;;;;8.43;4.72;;;;;;;17.50;100.00;94945.91;5060147;28;20040;-72
2022/06/24 04:53:11;;;;;;;4.68;3.72;;;;;;;17.21;100.00;94954.47;5089721;28;20122;-73
2022/06/24 04:55:38;;;;;;;5.95;4.15;;;;;;;17.10;100.00;94951.06;5061580;28;20074;-73
2022/06/24 04:58:05;;;;;;;10.85;5.68;;;;;;;17.06;100.00;94950.03;5078065;28;20069;-72
2022/06/24 05:00:32;;;;;;;4.80;3.42;;;;;;;17.08;100.00;94931.38;5054553;28;20082;-73
2022/06/24 05:02:59;;;;;;;8.98;4.63;;;;;;;17.07;100.00;94935.03;5062444;28;20108;-73
2022/06/24 05:05:26;;;;;;;8.07;5.60;;;;;;;17.22;100.00;94937.63;5045015;28;20075;-72
2022/06/24 05:07:53;;;;;;;8.35;4.88;;;;;;;17.25;100.00;94931.81;5073080;28;20029;-73
2022/06/24 05:10:20;;;;;;;11.30;5.38;;;;;;;17.28;100.00;94936.53;5081430;28;20272;-73
2022/06/24 05:12:47;;;;;;;17.05;5.85;;;;;;;17.38;100.00;94949.66;5046427;28;20254;-73
2022/06/24 05:15:13;;;;;;;10.43;4.72;;;;;;;17.36;100.00;94946.50;5062584;28;20586;-73
2022/06/24 05:17:40;;;;;;;11.40;6.25;;;;;;;17.25;100.00;94958.16;5061447;28;20502;-73
2022/06/24 05:20:08;;;;;;;7.45;5.10;;;;;;;17.16;100.00;94949.22;5079470;28;20044;-73
2022/06/24 05:22:40;;;;;;;11.05;5.53;;;;;;;17.17;100.00;94958.69;5073697;28;20048;-73
2022/06/24 05:25:07;;;;;;;23.73;6.13;;;;;;;17.07;100.00;94950.81;5089847;28;20040;-73
2022/06/24 05:27:34;;;;;;;11.55;5.57;;;;;;;17.24;100.00;94967.09;5070972;28;20039;-73
2022/06/24 05:30:01;;;;;;;11.30;6.03;;;;;;;17.14;100.00;94964.47;5092006;28;20036;-72
2022/06/24 05:32:28;;;;;;;8.02;6.00;;;;;;;17.28;100.00;94973.38;5089207;28;20457;-72
2022/06/24 05:34:56;;;;;;;12.63;6.18;;;;;;;17.22;100.00;94940.25;5067761;28;20557;-73
2022/06/24 05:37:23;;;;;;;8.52;6.07;;;;;;;17.48;100.00;94966.47;5057496;28;20064;-73
2022/06/24 05:39:50;;;;;;;12.23;7.32;;;;;;;17.44;100.00;94970.69;5073673;28;20035;-72
2022/06/24 05:42:16;;;;;;;8.32;6.28;;;;;;;17.35;100.00;94973.09;5076589;28;20042;-72
2022/06/24 05:44:43;;;;;;;10.88;6.55;;;;;;;17.50;100.00;94985.41;5069543;28;20048;-73
2022/06/24 05:47:10;;;;;;;12.32;6.28;;;;;;;17.48;100.00;94984.88;5051928;28;20142;-73
2022/06/24 05:49:37;;;;;;;14.80;6.32;;;;;;;17.53;100.00;94980.38;5071729;28;20043;-73
2022/06/24 05:52:04;;;;;;;14.10;5.25;;;;;;;17.64;100.00;94975.84;5051860;28;20036;-72
2022/06/24 05:57:17;;;;;;;7.30;6.50;;;;;;;18.20;100.00;94997.69;5067803;28;20036;-74
2022/06/24 05:59:44;;;;;;;19.08;6.78;;;;;;;18.37;100.00;95002.59;5050138;28;20041;-73
2022/06/24 06:02:10;;;;;;;10.20;6.10;;;;;;;18.46;100.00;94991.16;5071154;28;20036;-74
2022/06/24 06:04:37;;;;;;;9.57;6.28;;;;;;;18.50;100.00;94984.25;5067232;28;20036;-72
2022/06/24 06:07:04;;;;;;;9.15;5.43;;;;;;;18.64;100.00;94986.28;5066200;28;20060;-73
2022/06/24 06:09:32;;;;;;;7.90;6.20;;;;;;;18.59;100.00;94973.91;5044077;28;20062;-74
2022/06/24 06:11:59;;;;;;;7.60;5.00;;;;;;;18.61;100.00;94955.16;5067484;28;20082;-73
2022/06/24 06:14:26;;;;;;;12.45;5.57;;;;;;;18.36;100.00;94949.06;5066430;28;20035;-73
2022/06/24 06:17:00;;;;;;;10.43;6.55;;;;;;;18.44;100.00;94951.09;5045282;28;20122;-73
2022/06/24 06:19:27;;;;;;;11.40;5.78;;;;;;;18.77;100.00;94969.78;5071337;28;20111;-73
2022/06/24 06:21:54;;;;;;;12.98;5.40;;;;;;;18.87;100.00;94975.00;5065620;28;20036;-74
2022/06/24 06:24:21;;;;;;;7.20;5.20;;;;;;;18.96;100.00;94971.72;5048662;28;20040;-74
2022/06/24 06:26:49;;;;;;;8.73;5.25;;;;;;;19.10;100.00;94977.91;5049512;28;20785;-75
2022/06/24 06:29:16;;;;;;;6.57;4.80;;;;;;;19.18;100.00;94979.94;5063175;28;20050;-74
2022/06/24 06:31:43;;;;;;;9.65;5.20;;;;;;;19.27;100.00;94988.81;5050861;28;20037;-73
2022/06/24 06:34:10;;;;;;;9.32;4.82;;;;;;;19.25;100.00;94990.97;5050686;28;20045;-76
2022/06/24 06:36:37;;;;;;;11.27;4.97;;;;;;;19.31;100.00;94988.25;5047983;28;20631;-75
2022/06/24 06:39:04;;;;;;;7.38;5.95;;;;;;;19.47;100.00;94971.16;5064289;28;20064;-75
2022/06/24 06:41:31;;;;;;;8.25;5.40;;;;;;;19.54;100.00;94976.09;5042819;28;20040;-75
2022/06/24 06:43:57;;;;;;;7.15;5.00;;;;;;;19.74;100.00;94980.38;5049125;28;20527;-74
2022/06/24 06:46:24;;;;;;;13.20;5.45;;;;;;;19.81;100.00;94962.31;5047585;28;20045;-75
2022/06/24 06:48:51;;;;;;;9.38;5.10;;;;;;;19.85;100.00;94971.22;5044358;28;20037;-74
2022/06/24 06:51:19;;;;;;;8.50;5.20;;;;;;;19.82;100.00;94967.28;5056469;28;20037;-75
2022/06/24 06:53:46;;;;;;;8.38;6.00;;;;;;;20.10;100.00;94971.94;5041618;28;20102;-75
2022/06/24 06:56:13;;;;;;;7.32;5.20;;;;;;;20.32;100.00;94971.31;5065644;28;20028;-75
2022/06/24 06:58:40;;;;;;;5.75;4.80;;;;;;;20.40;100.00;94966.16;5053548;28;20046;-75
2022/06/24 07:01:06;;;;;;;9.05;5.80;;;;;;;20.43;100.00;94960.28;5046576;28;20066;-74
2022/06/24 07:03:33;;;;;;;11.13;6.00;;;;;;;20.58;100.00;94961.09;5060657;28;20502;-75
2022/06/24 07:06:00;;;;;;;11.30;5.40;;;;;;;20.71;100.00;94960.38;5055586;28;20040;-75
2022/06/24 07:08:27;;;;;;;9.80;5.68;;;;;;;20.84;100.00;94963.34;5053701;28;20041;-75
2022/06/24 07:10:54;;;;;;;7.60;5.18;;;;;;;20.67;100.00;94958.59;5052702;28;20049;-75
2022/06/24 07:13:21;;;;;;;6.43;5.60;;;;;;;20.92;99.60;94960.00;5043276;28;20135;-75
2022/06/24 07:15:48;;;;;;;7.32;4.72;;;;;;;21.11;98.58;94963.34;5030706;28;20052;-75
2022/06/24 07:18:15;;;;;;;16.65;6.32;;;;;;;21.20;97.63;94955.53;5061365;28;20138;-75
2022/06/24 07:20:43;;;;;;;8.75;5.22;;;;;;;21.36;99.34;94969.25;5045053;28;20045;-75
2022/06/24 07:23:11;;;;;;;9.45;6.18;;;;;;;21.35;97.69;94963.16;5046032;28;20127;-75
2022/06/24 07:25:38;;;;;;;7.07;4.93;;;;;;;21.33;99.16;94953.94;5039926;28;20634;-74
2022/06/24 07:28:05;;;;;;;6.53;5.03;;;;;;;21.55;97.57;94954.06;5060448;28;20024;-75
2022/06/24 07:30:32;;;;;;;8.65;5.47;;;;;;;21.60;97.76;94947.06;5045437;28;20048;-74
2022/06/24 07:32:59;;;;;;;6.57;5.05;;;;;;;21.67;97.62;94948.22;5066157;28;20067;-75
2022/06/24 07:35:26;;;;;;;7.68;4.72;;;;;;;21.81;96.93;94956.16;5062316;28;20028;-74
2022/06/24 07:38:13;;;;;;;10.20;5.00;;;;;;;21.74;96.04;94942.53;5054387;28;20040;-75
2022/06/24 07:40:40;;;;;;;9.25;5.32;;;;;;;21.86;96.68;94964.00;5048265;28;20059;-75
2022/06/24 07:43:07;;;;;;;7.20;5.28;;;;;;;22.04;95.20;94956.16;5073570;28;20072;-75
2022/06/24 07:45:34;;;;;;;10.00;5.47;;;;;;;22.26;94.56;94953.56;5056373;28;20063;-75
2022/06/24 07:48:01;;;;;;;9.60;4.78;;;;;;;22.47;92.96;94953.06;5063818;28;20051;-75
2022/06/24 07:50:28;;;;;;;8.38;5.40;;;;;;;22.50;89.79;94957.75;5047408;28;20028;-75
2022/06/24 07:52:55;;;;;;;11.85;4.95;;;;;;;22.66;90.95;94950.97;5062075;28;20106;-75
2022/06/24 07:58:07;;;;;;;3.47;3.10;;;;;;;22.80;84.66;94944.81;5067394;28;20044;-74
2022/06/24 08:00:34;;;;;;;14.23;3.75;;;;;;;22.84;82.37;94943.13;5070935;28;20425;-75
2022/06/24 08:03:01;;;;;;;5.63;3.72;;;;;;;22.98;82.97;94941.13;5062171;28;20044;-75
2022/06/24 08:05:28;;;;;;;7.70;4.32;;;;;;;23.05;81.67;94941.50;5051782;28;20048;-75
2022/06/24 08:07:55;;;;;;;10.10;4.38;;;;;;;23.19;83.05;94935.28;5068870;28;20039;-75
2022/06/24 08:10:22;;;;;;;10.27;3.53;;;;;;;23.16;77.16;94925.31;5042735;28;20625;-75
2022/06/24 08:12:49;;;;;;;4.50;3.63;;;;;;;23.33;79.89;94935.97;5032584;28;20127;-73
2022/06/24 08:15:17;;;;;;;8.10;4.60;;;;;;;23.22;79.74;94918.75;5042204;28;20040;-74
2022/06/24 08:17:44;;;;;;;3.75;3.22;;;;;;;23.00;78.65;94944.28;5055741;28;20614;-75
2022/06/24 08:20:11;;;;;;;6.88;4.07;;;;;;;23.21;76.34;94933.09;5055055;28;20048;-73
2022/06/24 08:22:39;;;;;;;8.80;3.15;;;;;;;23.28;75.88;94933.44;5071278;28;20047;-75
2022/06/24 08:25:07;;;;;;;3.05;2.47;;;;;;;23.04;72.65;94926.66;5047748;28;20048;-75
2022/06/24 08:27:48;;;;;;;4.60;2.88;;;;;;;23.42;71.24;94944.72;5068473;28;20044;-75
2022/06/24 08:30:15;;;;;;;3.25;2.53;;;;;;;23.48;73.46;94937.41;5045308;28;20056;-74
2022/06/24 08:32:42;;;;;;;6.43;3.05;;;;;;;23.88;74.33;94941.84;5075615;28;20047;-74
2022/06/24 08:35:09;;;;;;;7.55;3.10;;;;;;;23.96;70.26;94943.72;5073336;28;20070;-74
2022/06/24 08:37:54;;;;;;;8.13;3.53;;;;;;;24.09;70.45;94940.13;5072515;28;20040;-74
2022/06/24 08:40:21;;;;;;;3.97;3.00;;;;;;;24.46;67.05;94940.56;5052921;28;20165;-74
2022/06/24 08:42:53;;;;;;;6.43;3.30;;;;;;;24.43;69.28;94954.50;5044411;28;20087;-74
2022/06/24 08:45:22;;;;;;;7.55;2.90;;;;;;;24.43;68.25;94949.97;5015251;28;20036;-74
2022/06/24 08:47:49;;;;;;;4.43;2.55;;;;;;;24.40;67.08;94941.84;5044132;28;20043;-74
2022/06/24 08:50:17;;;;;;;4.18;2.75;;;;;;;24.58;66.23;94948.72;5052545;28;20432;-74
2022/06/24 08:52:54;;;;;;;3.72;2.58;;;;;;;24.71;62.42;94954.94;5059580;28;20040;-75
2022/06/24 08:55:24;;;;;;;5.50;2.38;;;;;;;24.61;61.79;94950.75;5058641;28;20044;-75
2022/06/24 08:57:52;;;;;;;4.13;2.75;;;;;;;24.48;62.21;94938.34;5057183;28;20041;-74
2022/06/24 09:00:20;;;;;;;5.10;2.53;;;;;;;24.37;58.84;94945.88;5052429;28;20047;-74
2022/06/24 09:02:48;;;;;;;4.38;2.15;;;;;;;24.67;57.46;94947.88;5047377;28;20060;-74
2022/06/24 09:05:16;;;;;;;4.97;1.90;;;;;;;24.45;53.25;94952.28;5054170;28;20499;-75
2022/06/24 09:07:43;;;;;;;5.28;2.30;;;;;;;24.66;50.88;94946.34;5051635;28;20040;-74
2022/06/24 09:10:12;;;;;;;2.90;2.13;;;;;;;25.06;51.43;94935.38;5058649;28;20261;-75
2022/06/24 09:12:41;;;;;;;6.13;2.45;;;;;;;25.46;49.73;94935.03;5074105;28;20398;-75
2022/06/24 09:15:11;;;;;;;2.08;1.58;;;;;;;25.65;47.80;94938.06;5061261;28;20044;-75
2022/06/24 09:17:40;;;;;;;2.25;1.80;;;;;;;25.70;47.90;94940.53;5071356;28;20726;-75
2022/06/24 09:20:10;;;;;;;4.65;2.45;;;;;;;25.80;47.85;94941.25;5077662;28;20043;-74
2022/06/24 09:23:06;;;;;;;3.75;2.20;;;;;;;25.89;48.54;94941.97;5059034;28;20047;-75
2022/06/24 09:25:45;;;;;;;2.50;2.22;;;;;;;26.23;45.65;94934.81;5047295;28;20062;-73
2022/06/24 09:28:28;;;;;;;3.92;2.00;;;;;;;26.30;40.45;94945.75;5024871;28;20051;-74
2022/06/24 09:31:03;;;;;;;2.17;1.23;;;;;;;26.30;38.80;94935.06;5059977;28;20045;-74
2022/06/24 09:33:39;;;;;;;1.80;1.02;;;;;;;26.50;33.45;94952.16;5057433;28;20425;-74
2022/06/24 09:36:09;;;;;;;2.72;1.40;;;;;;;26.42;36.46;94948.47;5041351;28;20750;-74
2022/06/24 09:38:54;;;;;;;2.50;2.00;;;;;;;26.28;36.91;94942.63;5042674;28;20040;-74
2022/06/24 09:41:23;;;;;;;3.83;1.73;;;;;;;26.36;36.91;94941.75;5058024;28;20055;-75
2022/06/24 09:43:52;;;;;;;2.58;1.58;;;;;;;26.49;33.33;94948.69;5069821;28;20033;-74
2022/06/24 09:46:22;;;;;;;1.85;1.48;;;;;;;26.57;33.63;94954.28;5047317;28;20036;-75
2022/06/24 09:49:00;;;;;;;2.70;1.80;;;;;;;27.00;36.88;94951.16;5049619;28;20039;-75
2022/06/24 09:51:28;;;;;;;1.75;1.58;;;;;;;27.31;36.13;94959.78;5067702;28;20044;-75
2022/06/24 09:53:55;;;;;;;3.63;1.90;;;;;;;27.32;36.54;94950.66;5068909;28;20044;-75
2022/06/24 09:56:23;;;;;;;1.90;1.50;;;;;;;27.68;34.77;94957.06;5065740;28;20046;-75
2022/06/24 10:01:38;;;;;;;2.45;1.10;;;;;;;27.25;33.16;94949.28;5035902;28;20130;-74
2022/06/24 10:04:09;;;;;;;3.17;1.80;;;;;;;27.60;32.39;94946.19;5051330;28;20076;-74
2022/06/24 10:06:37;;;;;;;2.47;1.30;;;;;;;28.10;32.75;94954.13;5069599;28;20087;-75
2022/06/24 10:09:05;;;;;;;2.05;1.55;;;;;;;28.48;32.09;94956.28;5068404;28;20608;-74
2022/06/24 10:11:37;;;;;;;1.70;1.20;;;;;;;28.63;29.87;94957.50;5060975;28;20048;-75
2022/06/24 10:14:04;;;;;;;1.85;1.23;;;;;;;28.52;31.13;94951.03;5069328;28;20047;-74
2022/06/24 10:16:34;;;;;;;2.88;1.58;;;;;;;28.65;30.85;94955.25;5047190;28;20071;-75
2022/06/24 10:19:03;;;;;;;1.90;1.55;;;;;;;28.90;32.07;94960.44;5053649;28;20044;-74
2022/06/24 10:21:32;;;;;;;3.03;1.80;;;;;;;28.35;33.80;94952.88;5061363;28;20040;-74
2022/06/24 10:23:59;;;;;;;4.90;1.50;;;;;;;28.57;32.93;94974.91;5045412;28;20059;-75
2022/06/24 10:26:31;;;;;;;2.25;1.73;;;;;;;28.17;34.11;94962.34;5067236;28;20923;-74
2022/06/24 10:29:04;;;;;;;2.63;1.65;;;;;;;27.75;34.86;94973.34;5034356;28;20042;-74
2022/06/24 10:34:11;;;;;;;3.55;1.60;;;;;;;27.87;34.73;94962.59;5063029;28;20064;-74
2022/06/24 10:36:38;;;;;;;2.00;1.60;;;;;;;27.88;35.59;94961.50;5062757;28;20052;-74
2022/06/24 10:39:16;;;;;;;4.50;2.00;;;;;;;27.48;36.05;94962.25;5038947;28;20051;-74
2022/06/24 10:41:44;;;;;;;1.83;1.70;;;;;;;27.71;35.58;94972.44;5046490;28;20117;-74
2022/06/24 10:44:31;;;;;;;3.78;1.75;;;;;;;28.20;34.87;94961.66;5040342;28;20036;-73
2022/06/24 10:47:04;;;;;;;2.30;1.70;;;;;;;29.04;33.06;94965.38;5057795;28;20040;-74
2022/06/24 10:50:13;;;;;;;5.10;2.05;;;;;;;29.19;34.51;94966.53;5074410;28;20037;-74
2022/06/24 10:52:51;;;;;;;3.38;1.98;;;;;;;29.62;32.36;94962.16;5062920;28;20125;-74
2022/06/24 10:55:18;;;;;;;5.05;1.48;;;;;;;30.10;32.74;94954.75;5069993;28;20052;-74
2022/06/24 10:57:50;;;;;;;4.40;1.45;;;;;;;30.33;33.15;94956.75;5037519;28;20135;-74
2022/06/24 11:00:19;;;;;;;8.55;2.33;;;;;;;30.68;32.75;94960.13;5041398;28;20052;-74
2022/06/24 11:02:50;;;;;;;3.33;1.75;;;;;;;30.86;33.92;94956.94;5055786;28;20029;-74
2022/06/24 11:05:26;;;;;;;3.88;2.42;;;;;;;30.89;33.58;94948.19;5036052;28;20056;-74
2022/06/24 11:07:53;;;;;;;2.50;1.98;;;;;;;30.66;32.98;94959.69;5061570;28;20111;-73
2022/06/24 11:10:24;;;;;;;3.15;1.67;;;;;;;30.19;33.36;94955.31;5054211;28;20044;-74
2022/06/24 11:12:54;;;;;;;3.03;2.30;;;;;;;29.60;35.20;94957.13;5075536;28;20044;-73
2022/06/24 11:15:34;;;;;;;2.45;1.92;;;;;;;29.16;36.45;94949.25;5053721;28;20033;-73
2022/06/24 11:18:10;;;;;;;5.45;2.13;;;;;;;29.02;36.37;94963.03;5046753;28;20048;-73
2022/06/24 11:20:41;;;;;;;2.50;1.88;;;;;;;28.68;36.75;94949.19;5043020;28;20051;-73
2022/06/24 11:23:09;;;;;;;2.67;1.83;;;;;;;28.69;36.63;94950.75;5075600;28;20028;-73
2022/06/24 11:25:39;;;;;;;3.85;2.15;;;;;;;29.45;37.11;94957.94;5037718;28;20052;-73
2022/06/24 11:28:18;;;;;;;17.33;2.13;;;;;;;30.25;37.85;94945.88;5043303;28;20040;-74
2022/06/24 11:30:45;;;;;;;3.72;1.88;;;;;;;30.74;35.56;94959.81;5040885;28;20044;-74
2022/06/24 11:33:12;;;;;;;5.88;2.10;;;;;;;30.72;35.89;94962.06;5060596;28;20036;-73
2022/06/24 11:35:39;;;;;;;4.75;2.08;;;;;;;30.59;35.00;94956.88;5051262;28;20045;-73
2022/06/24 11:38:08;;;;;;;3.40;1.83;;;;;;;30.51;32.48;94963.25;5060796;28;20049;-73
2022/06/24 11:40:36;;;;;;;2.40;1.90;;;;;;;30.76;33.23;94947.59;5060797;28;20039;-74
2022/06/24 11:43:05;;;;;;;5.07;1.85;;;;;;;31.51;30.54;94952.66;5043672;28;20048;-74
2022/06/24 11:45:41;;;;;;;4.10;1.95;;;;;;;32.16;32.23;94949.69;5054664;28;20046;-74
2022/06/24 11:48:10;;;;;;;1.90;1.60;;;;;;;32.98;30.93;94948.25;5074454;28;20047;-74
2022/06/24 11:50:38;;;;;;;2.55;1.70;;;;;;;32.73;34.40;94940.69;5044675;28;21032;-73
2022/06/24 11:53:07;;;;;;;6.90;1.85;;;;;;;32.97;31.53;94942.06;5044722;28;20051;-74